Time;durP1;ratioP1;P1;durP2;ratioP2;P2;SDS_P1;SDS_P2;PMS_P1;PMS_P2;Temp;Humidity;BMP_temperature;BMP_pressure;BME280_temperature;BME280_humidity;BME280_pressure;Samples;Min_cycle;Max_cycle;Signal;HPM_P1;HPM_P2
2023/03/20 00:01:08;;;;;;;;;;;18.10;55.60;;;;;;5008155;28;20363;-76
2023/03/20 00:03:34;;;;;;;;;;;18.10;55.60;;;;;;5009598;28;19918;-76
2023/03/20 00:05:59;;;;;;;;;;;18.10;55.70;;;;;;5010616;28;19917;-75
2023/03/20 00:08:25;;;;;;;;;;;18.10;55.60;;;;;;5029457;28;20382;-75
2023/03/20 00:10:50;;;;;;;;;;;18.10;55.60;;;;;;5027911;28;19921;-75
2023/03/20 00:13:21;;;;;;;;;;;18.10;55.60;;;;;;5029473;28;19973;-76
2023/03/20 00:15:47;;;;;;;;;;;18.10;55.60;;;;;;5028719;28;19913;-75
2023/03/20 00:18:22;;;;;;;;;;;18.10;55.60;;;;;;5029299;28;19965;-75
2023/03/20 00:20:50;;;;;;;;;;;18.00;55.60;;;;;;5027457;28;20056;-75
2023/03/20 00:23:16;;;;;;;;;;;18.00;55.70;;;;;;5029118;28;19959;-76
2023/03/20 00:25:42;;;;;;;;;;;18.00;55.60;;;;;;5028987;28;19917;-76
2023/03/20 00:28:26;;;;;;;;;;;18.00;55.60;;;;;;4995746;28;20358;-75
2023/03/20 00:30:52;;;;;;;;;;;18.00;55.70;;;;;;5008850;28;19916;-75
2023/03/20 00:33:17;;;;;;;;;;;17.90;55.50;;;;;;5025057;28;19909;-75
2023/03/20 00:35:43;;;;;;;;;;;18.00;55.70;;;;;;4991323;28;20013;-75
2023/03/20 00:38:08;;;;;;;;;;;18.00;55.60;;;;;;5009887;28;19917;-75
2023/03/20 00:40:34;;;;;;;;;;;17.90;55.60;;;;;;4992331;28;19924;-75
2023/03/20 00:43:00;;;;;;;;;;;17.90;55.60;;;;;;5008939;28;19910;-75
2023/03/20 00:45:26;;;;;;;;;;;18.00;55.70;;;;;;5029063;28;19917;-75
2023/03/20 00:47:51;;;;;;;;;;;17.90;55.70;;;;;;5021561;28;19955;-75
2023/03/20 00:50:22;;;;;;;;;;;17.90;55.70;;;;;;5009349;28;19920;-75
2023/03/20 00:52:48;;;;;;;;;;;17.90;55.70;;;;;;5009310;28;20431;-76
2023/03/20 00:55:13;;;;;;;;;;;17.90;55.70;;;;;;5008438;28;19917;-76
2023/03/20 00:57:40;;;;;;;;;;;17.90;55.70;;;;;;5024978;28;19910;-76
2023/03/20 01:00:07;;;;;;;;;;;17.90;55.70;;;;;;5011047;28;19957;-76
2023/03/20 01:02:33;;;;;;;;;;;17.90;55.70;;;;;;5028108;28;19909;-75
2023/03/20 01:04:58;;;;;;;;;;;17.90;55.80;;;;;;5012036;28;19936;-75
2023/03/20 01:07:24;;;;;;;;;;;17.90;55.80;;;;;;5028620;28;19913;-76
2023/03/20 01:09:49;;;;;;;;;;;17.80;55.70;;;;;;5029600;28;19921;-75
2023/03/20 01:12:15;;;;;;;;;;;17.80;55.70;;;;;;5008800;28;19958;-76
2023/03/20 01:14:41;;;;;;;;;;;17.80;55.70;;;;;;5009290;28;20371;-76
2023/03/20 01:17:12;;;;;;;;;;;17.80;55.80;;;;;;5009225;28;19917;-76
2023/03/20 01:19:38;;;;;;;;;;;17.80;55.80;;;;;;5028535;28;19909;-75
2023/03/20 01:22:03;;;;;;;;;;;17.80;55.70;;;;;;5010106;28;19919;-75
2023/03/20 01:24:29;;;;;;;;;;;17.80;55.90;;;;;;5009864;28;19945;-75
2023/03/20 01:26:55;;;;;;;;;;;17.80;55.80;;;;;;5027875;28;19913;-75
2023/03/20 01:29:21;;;;;;;;;;;17.80;55.90;;;;;;5017738;28;19914;-75
2023/03/20 01:31:47;;;;;;;;;;;17.80;55.80;;;;;;5021316;28;20008;-75
2023/03/20 01:34:12;;;;;;;;;;;17.80;55.90;;;;;;5025544;28;19955;-75
2023/03/20 01:36:38;;;;;;;;;;;17.80;55.90;;;;;;4992108;28;19921;-76
2023/03/20 01:39:03;;;;;;;;;;;17.80;55.90;;;;;;5025100;28;19970;-75
2023/03/20 01:41:29;;;;;;;;;;;17.80;55.90;;;;;;5011179;28;19913;-75
2023/03/20 01:43:54;;;;;;;;;;;17.70;55.90;;;;;;5027925;28;19913;-76
2023/03/20 01:46:24;;;;;;;;;;;17.70;55.80;;;;;;5011792;28;19909;-76
2023/03/20 01:48:49;;;;;;;;;;;17.70;55.90;;;;;;5014934;28;20378;-75
2023/03/20 01:51:25;;;;;;;;;;;17.70;55.90;;;;;;5028207;28;19957;-75
2023/03/20 01:53:56;;;;;;;;;;;17.70;55.80;;;;;;5011576;28;19983;-75
2023/03/20 01:56:21;;;;;;;;;;;17.70;55.90;;;;;;5000275;28;19914;-75
2023/03/20 01:58:51;;;;;;;;;;;17.70;55.90;;;;;;5011243;28;20011;-75
2023/03/20 02:01:17;;;;;;;;;;;17.70;55.90;;;;;;4995018;28;19918;-75
2023/03/20 02:03:43;;;;;;;;;;;17.70;55.80;;;;;;5015004;27;19931;-75
2023/03/20 02:06:08;;;;;;;;;;;17.70;55.90;;;;;;5011343;28;19916;-75
2023/03/20 02:08:52;;;;;;;;;;;17.60;55.80;;;;;;5012280;28;19972;-75
2023/03/20 02:11:18;;;;;;;;;;;17.70;55.90;;;;;;4994707;28;20020;-75
2023/03/20 02:13:43;;;;;;;;;;;17.70;55.90;;;;;;4994555;28;19910;-75
2023/03/20 02:16:10;;;;;;;;;;;17.70;55.90;;;;;;4995291;28;19963;-75
2023/03/20 02:18:35;;;;;;;;;;;17.70;55.90;;;;;;5012069;28;19917;-75
2023/03/20 02:21:20;;;;;;;;;;;17.70;55.80;;;;;;5018010;28;20427;-75
2023/03/20 02:24:04;;;;;;;;;;;17.70;55.70;;;;;;5030973;28;20346;-75
2023/03/20 02:26:33;;;;;;;;;;;17.70;55.70;;;;;;5022694;28;19909;-75
2023/03/20 02:29:17;;;;;;;;;;;17.80;55.50;;;;;;5014148;28;19977;-75
2023/03/20 02:32:01;;;;;;;;;;;17.80;55.40;;;;;;5032576;28;20370;-75
2023/03/20 02:34:52;;;;;;;;;;;17.80;55.30;;;;;;5030184;28;19913;-75
2023/03/20 02:37:29;;;;;;;;;;;17.90;55.30;;;;;;5015652;28;20286;-76
2023/03/20 02:39:58;;;;;;;;;;;17.90;55.10;;;;;;5030955;28;19917;-76
2023/03/20 02:42:23;;;;;;;;;;;18.00;54.90;;;;;;5031038;28;19913;-76
2023/03/20 02:44:56;;;;;;;;;;;18.10;54.90;;;;;;5030153;28;19946;-75
2023/03/20 02:47:41;;;;;;;;;;;18.10;54.80;;;;;;5013992;28;20008;-75
2023/03/20 02:50:11;;;;;;;;;;;18.10;54.70;;;;;;5012476;28;20259;-75
2023/03/20 02:52:40;;;;;;;;;;;18.10;54.90;;;;;;5022669;28;19949;-75
2023/03/20 02:55:16;;;;;;;;;;;18.00;54.80;;;;;;5031759;28;19913;-75
2023/03/20 02:57:59;;;;;;;;;;;18.00;54.90;;;;;;5030405;28;19917;-75
2023/03/20 03:00:27;;;;;;;;;;;18.00;55.00;;;;;;5029985;28;19913;-75
2023/03/20 03:03:19;;;;;;;;;;;17.90;55.00;;;;;;5071113;27;19975;-75
2023/03/20 03:05:48;;;;;;;;;;;17.90;55.10;;;;;;5011736;28;20295;-75
2023/03/20 03:08:14;;;;;;;;;;;17.90;55.20;;;;;;5010917;28;19953;-76
2023/03/20 03:10:44;;;;;;;;;;;17.90;55.20;;;;;;5000403;28;19977;-76
2023/03/20 03:13:14;;;;;;;;;;;17.80;55.10;;;;;;5010601;28;20389;-75
2023/03/20 03:15:40;;;;;;;;;;;17.80;55.00;;;;;;5010098;28;20406;-76
2023/03/20 03:18:06;;;;;;;;;;;17.80;54.90;;;;;;5023981;28;19913;-75
2023/03/20 03:20:32;;;;;;;;;;;17.80;55.00;;;;;;5030227;28;20302;-75
2023/03/20 03:22:58;;;;;;;;;;;17.80;55.00;;;;;;5027550;28;19909;-75
2023/03/20 03:25:24;;;;;;;;;;;17.80;55.10;;;;;;5013027;28;19920;-75
2023/03/20 03:27:53;;;;;;;;;;;17.80;55.10;;;;;;5029737;28;19914;-75
2023/03/20 03:30:23;;;;;;;;;;;17.70;55.00;;;;;;5011869;28;20004;-75
2023/03/20 03:33:08;;;;;;;;;;;17.80;55.00;;;;;;5094446;27;19912;-75
2023/03/20 03:35:34;;;;;;;;;;;17.70;55.00;;;;;;5011186;28;19978;-76
2023/03/20 03:38:01;;;;;;;;;;;17.70;55.00;;;;;;5011823;28;19913;-75
2023/03/20 03:40:31;;;;;;;;;;;17.70;55.10;;;;;;5011114;28;19910;-75
2023/03/20 03:43:00;;;;;;;;;;;17.70;55.00;;;;;;5009611;28;20406;-75
2023/03/20 03:45:26;;;;;;;;;;;17.70;55.00;;;;;;5010224;28;20327;-75
2023/03/20 03:48:00;;;;;;;;;;;17.70;55.00;;;;;;5011570;28;19996;-75
2023/03/20 03:50:29;;;;;;;;;;;17.70;55.00;;;;;;5010669;28;19921;-75
2023/03/20 03:52:57;;;;;;;;;;;17.70;55.00;;;;;;5010086;28;19913;-75
2023/03/20 03:55:26;;;;;;;;;;;17.70;54.90;;;;;;4993342;28;19910;-75
2023/03/20 03:57:56;;;;;;;;;;;17.70;54.90;;;;;;5009264;28;19917;-75
2023/03/20 04:00:22;;;;;;;;;;;17.70;54.90;;;;;;5010634;28;20388;-76
2023/03/20 04:02:48;;;;;;;;;;;17.70;54.80;;;;;;5011533;28;19920;-76
2023/03/20 04:05:14;;;;;;;;;;;17.70;54.80;;;;;;4993316;28;19924;-75
2023/03/20 04:07:43;;;;;;;;;;;17.70;54.80;;;;;;5012214;28;20004;-75
2023/03/20 04:10:08;;;;;;;;;;;17.70;54.90;;;;;;5008608;28;19928;-75
2023/03/20 04:12:38;;;;;;;;;;;17.70;54.80;;;;;;5009621;28;19913;-75
2023/03/20 04:15:03;;;;;;;;;;;17.70;54.80;;;;;;5009353;28;19910;-75
2023/03/20 04:17:29;;;;;;;;;;;17.70;54.90;;;;;;5010033;28;20016;-76
2023/03/20 04:19:55;;;;;;;;;;;17.60;54.80;;;;;;5027992;28;19928;-75
2023/03/20 04:22:20;;;;;;;;;;;17.60;54.90;;;;;;5012746;28;20012;-75
2023/03/20 04:24:46;;;;;;;;;;;17.60;54.90;;;;;;5006158;28;19919;-75
2023/03/20 04:27:11;;;;;;;;;;;17.60;54.80;;;;;;5010647;28;19968;-75
2023/03/20 04:29:36;;;;;;;;;;;17.60;54.90;;;;;;5008842;28;19910;-75
2023/03/20 04:32:02;;;;;;;;;;;17.60;55.00;;;;;;5016551;28;19921;-75
2023/03/20 04:34:28;;;;;;;;;;;17.60;54.90;;;;;;5012457;28;19909;-75
2023/03/20 04:36:54;;;;;;;;;;;17.60;54.90;;;;;;5009543;28;20287;-75
2023/03/20 04:39:19;;;;;;;;;;;17.60;54.80;;;;;;5008913;28;19973;-75
2023/03/20 04:41:46;;;;;;;;;;;17.60;54.80;;;;;;5014353;28;20013;-75
2023/03/20 04:44:11;;;;;;;;;;;17.60;54.80;;;;;;5028381;28;19909;-75
2023/03/20 04:46:37;;;;;;;;;;;17.60;54.90;;;;;;5028757;28;19970;-75
2023/03/20 04:49:02;;;;;;;;;;;17.50;54.80;;;;;;5028555;28;19982;-75
2023/03/20 04:51:28;;;;;;;;;;;17.50;54.80;;;;;;5028270;28;19909;-75
2023/03/20 04:53:53;;;;;;;;;;;17.60;54.90;;;;;;5008664;28;19924;-75
2023/03/20 04:56:19;;;;;;;;;;;17.60;54.80;;;;;;4992296;28;19913;-75
2023/03/20 04:58:44;;;;;;;;;;;17.50;54.70;;;;;;5019830;28;19953;-75
2023/03/20 05:01:10;;;;;;;;;;;17.60;54.80;;;;;;4992694;28;19967;-76
2023/03/20 05:03:35;;;;;;;;;;;17.60;54.80;;;;;;5009115;28;19920;-75
2023/03/20 05:06:01;;;;;;;;;;;17.60;54.80;;;;;;4992957;28;19916;-75
2023/03/20 05:08:26;;;;;;;;;;;17.60;54.60;;;;;;5012004;28;20282;-75
2023/03/20 05:10:52;;;;;;;;;;;17.60;54.50;;;;;;5028668;28;19964;-75
2023/03/20 05:13:17;;;;;;;;;;;17.60;54.50;;;;;;5028743;28;20400;-75
2023/03/20 05:15:42;;;;;;;;;;;17.60;54.40;;;;;;5026203;28;19913;-76
2023/03/20 05:18:08;;;;;;;;;;;17.60;54.40;;;;;;5028578;28;19909;-75
2023/03/20 05:20:35;;;;;;;;;;;17.60;54.30;;;;;;5028448;28;20564;-76
2023/03/20 05:23:01;;;;;;;;;;;17.70;54.20;;;;;;5031098;28;19971;-76
2023/03/20 05:25:26;;;;;;;;;;;17.70;54.20;;;;;;5025335;28;20405;-76
2023/03/20 05:27:51;;;;;;;;;;;17.70;54.10;;;;;;5031377;28;19913;-76
2023/03/20 05:30:18;;;;;;;;;;;17.70;54.10;;;;;;5032424;28;19931;-75
2023/03/20 05:32:44;;;;;;;;;;;17.70;54.10;;;;;;5019246;27;19913;-76
2023/03/20 05:35:09;;;;;;;;;;;17.70;54.00;;;;;;5012133;28;19913;-76
2023/03/20 05:37:35;;;;;;;;;;;17.70;54.10;;;;;;4995788;28;19945;-76
2023/03/20 05:40:02;;;;;;;;;;;17.70;54.00;;;;;;5012457;28;19953;-75
2023/03/20 05:42:27;;;;;;;;;;;17.70;54.00;;;;;;5011966;28;19910;-75
2023/03/20 05:44:52;;;;;;;;;;;17.70;53.90;;;;;;5009899;28;19914;-75
2023/03/20 05:47:18;;;;;;;;;;;17.70;53.90;;;;;;5012081;28;19909;-75
2023/03/20 05:49:43;;;;;;;;;;;17.60;53.80;;;;;;5011722;28;19910;-75
2023/03/20 05:52:09;;;;;;;;;;;17.60;53.90;;;;;;5026468;28;19910;-75
2023/03/20 05:54:35;;;;;;;;;;;17.60;53.90;;;;;;5011823;28;19917;-75
2023/03/20 05:57:00;;;;;;;;;;;17.60;53.90;;;;;;4995139;28;19921;-75
2023/03/20 05:59:26;;;;;;;;;;;17.60;53.80;;;;;;5007959;28;19921;-75
2023/03/20 06:01:51;;;;;;;;;;;17.60;53.70;;;;;;5013360;28;19910;-75
2023/03/20 06:04:17;;;;;;;;;;;17.60;53.80;;;;;;5011697;28;19909;-75
2023/03/20 06:06:42;;;;;;;;;;;17.60;53.80;;;;;;5013642;28;19913;-75
2023/03/20 06:09:08;;;;;;;;;;;17.50;53.80;;;;;;5030523;28;19944;-75
2023/03/20 06:11:33;;;;;;;;;;;17.50;53.80;;;;;;5010987;28;19921;-75
2023/03/20 06:13:59;;;;;;;;;;;17.50;53.70;;;;;;4994929;28;19914;-75
2023/03/20 06:16:25;;;;;;;;;;;17.60;53.70;;;;;;4994919;28;19924;-75
2023/03/20 06:18:51;;;;;;;;;;;17.60;53.70;;;;;;5011981;28;19935;-75
2023/03/20 06:21:16;;;;;;;;;;;17.50;53.50;;;;;;4995024;28;19914;-75
2023/03/20 06:23:42;;;;;;;;;;;17.60;53.60;;;;;;5003128;28;19909;-75
2023/03/20 06:26:07;;;;;;;;;;;17.50;53.40;;;;;;5010093;28;20287;-75
2023/03/20 06:28:33;;;;;;;;;;;17.60;53.40;;;;;;4995293;28;19909;-75
2023/03/20 06:30:58;;;;;;;;;;;17.60;53.40;;;;;;5010962;28;19992;-75
2023/03/20 06:33:24;;;;;;;;;;;17.50;53.40;;;;;;5117994;27;20113;-75
2023/03/20 06:35:49;;;;;;;;;;;17.60;53.50;;;;;;5032253;27;19917;-74
2023/03/20 06:38:15;;;;;;;;;;;17.50;53.60;;;;;;5026405;28;19917;-75
2023/03/20 06:40:41;;;;;;;;;;;17.60;53.50;;;;;;5011253;28;19996;-75
2023/03/20 06:43:07;;;;;;;;;;;17.60;53.50;;;;;;5011005;28;19909;-75
2023/03/20 06:45:32;;;;;;;;;;;17.60;53.30;;;;;;5000950;28;19914;-75
2023/03/20 06:47:58;;;;;;;;;;;17.60;53.30;;;;;;5010693;28;19917;-75
2023/03/20 06:50:23;;;;;;;;;;;17.60;53.40;;;;;;5013308;28;19966;-75
2023/03/20 06:52:49;;;;;;;;;;;17.60;53.40;;;;;;5010043;28;19962;-75
2023/03/20 06:55:15;;;;;;;;;;;17.60;53.30;;;;;;5010131;28;20004;-75
2023/03/20 06:57:40;;;;;;;;;;;17.50;53.20;;;;;;5011348;28;19979;-75
2023/03/20 07:00:06;;;;;;;;;;;17.50;53.20;;;;;;5010435;28;19910;-75
2023/03/20 07:02:32;;;;;;;;;;;17.40;53.30;;;;;;4994661;28;20039;-75
2023/03/20 07:04:57;;;;;;;;;;;17.40;53.40;;;;;;5014896;28;20378;-75
2023/03/20 07:07:23;;;;;;;;;;;17.40;53.40;;;;;;5030363;28;19915;-75
2023/03/20 07:09:49;;;;;;;;;;;17.40;53.40;;;;;;5013576;28;20347;-75
2023/03/20 07:12:14;;;;;;;;;;;17.40;53.20;;;;;;5022293;28;20012;-75
2023/03/20 07:14:43;;;;;;;;;;;17.40;53.60;;;;;;5010984;28;19920;-75
2023/03/20 07:17:08;;;;;;;;;;;17.40;53.40;;;;;;5012015;28;19945;-75
2023/03/20 07:19:35;;;;;;;;;;;17.40;53.30;;;;;;5010198;28;20391;-75
2023/03/20 07:22:01;;;;;;;;;;;17.40;53.40;;;;;;4999099;28;19978;-75
2023/03/20 07:24:27;;;;;;;;;;;17.40;53.40;;;;;;5015611;27;20008;-76
2023/03/20 07:26:52;;;;;;;;;;;17.40;53.40;;;;;;5012773;28;20353;-76
2023/03/20 07:29:17;;;;;;;;;;;17.40;53.50;;;;;;5009457;28;20301;-75
2023/03/20 07:31:43;;;;;;;;;;;17.40;53.50;;;;;;5013378;27;20412;-75
2023/03/20 07:34:09;;;;;;;;;;;17.40;53.50;;;;;;5009789;28;20367;-75
2023/03/20 07:36:35;;;;;;;;;;;17.40;53.60;;;;;;5016619;28;19932;-75
2023/03/20 07:39:00;;;;;;;;;;;17.40;53.60;;;;;;5006929;28;19913;-75
2023/03/20 07:41:26;;;;;;;;;;;17.40;53.60;;;;;;5025840;28;19909;-75
2023/03/20 07:43:51;;;;;;;;;;;17.40;53.60;;;;;;5009351;28;20279;-75
2023/03/20 07:46:17;;;;;;;;;;;17.40;53.70;;;;;;5005185;28;19913;-75
2023/03/20 07:48:42;;;;;;;;;;;17.40;53.70;;;;;;5010512;28;19916;-75
2023/03/20 07:51:08;;;;;;;;;;;17.30;53.60;;;;;;5021085;28;20335;-74
2023/03/20 07:53:33;;;;;;;;;;;17.30;53.70;;;;;;5013634;28;19927;-74
2023/03/20 07:55:59;;;;;;;;;;;17.40;53.70;;;;;;5000768;28;19998;-75
2023/03/20 07:58:24;;;;;;;;;;;17.40;53.60;;;;;;5012791;28;19978;-75
2023/03/20 08:00:50;;;;;;;;;;;17.40;53.70;;;;;;5019719;28;19966;-75
2023/03/20 08:03:16;;;;;;;;;;;17.40;53.60;;;;;;5010893;28;20390;-75
2023/03/20 08:05:42;;;;;;;;;;;17.40;53.50;;;;;;5022168;28;20297;-75
2023/03/20 08:08:07;;;;;;;;;;;17.40;53.50;;;;;;4997557;28;19952;-75
2023/03/20 08:10:33;;;;;;;;;;;17.40;53.50;;;;;;5018346;28;19999;-74
2023/03/20 08:12:58;;;;;;;;;;;17.40;53.60;;;;;;5010949;28;20026;-75
2023/03/20 08:15:24;;;;;;;;;;;17.50;53.70;;;;;;5016121;28;19909;-74
2023/03/20 08:17:49;;;;;;;;;;;17.40;53.50;;;;;;5010705;28;19995;-74
2023/03/20 08:20:15;;;;;;;;;;;17.40;53.50;;;;;;5010134;28;19921;-75
2023/03/20 08:22:41;;;;;;;;;;;17.50;53.70;;;;;;5021669;28;19954;-75
2023/03/20 08:25:07;;;;;;;;;;;17.50;53.50;;;;;;5008743;28;19913;-74
2023/03/20 08:27:33;;;;;;;;;;;18.10;52.80;;;;;;5010929;28;20016;-75
2023/03/20 08:29:59;;;;;;;;;;;18.60;51.50;;;;;;5011218;28;20363;-75
2023/03/20 08:32:25;;;;;;;;;;;19.20;50.30;;;;;;5020268;28;19917;-75
2023/03/20 08:34:51;;;;;;;;;;;19.60;49.30;;;;;;5004114;28;19917;-75
2023/03/20 08:37:17;;;;;;;;;;;19.80;48.90;;;;;;5009242;28;19925;-75
2023/03/20 08:39:43;;;;;;;;;;;20.00;48.40;;;;;;5019101;28;19918;-75
2023/03/20 08:42:08;;;;;;;;;;;20.20;47.90;;;;;;4999116;28;19913;-75
2023/03/20 08:44:34;;;;;;;;;;;20.30;47.90;;;;;;5025907;28;20294;-75
2023/03/20 08:46:59;;;;;;;;;;;20.40;47.70;;;;;;5003762;28;19917;-75
2023/03/20 08:49:25;;;;;;;;;;;20.50;47.50;;;;;;5001460;28;20437;-77
2023/03/20 08:51:50;;;;;;;;;;;20.60;47.20;;;;;;5026136;28;20394;-74
2023/03/20 08:54:17;;;;;;;;;;;20.60;47.20;;;;;;5006328;28;19924;-75
2023/03/20 08:56:43;;;;;;;;;;;20.70;47.00;;;;;;5002975;28;19970;-76
2023/03/20 08:59:08;;;;;;;;;;;20.80;46.80;;;;;;5008427;28;19916;-75
2023/03/20 09:01:34;;;;;;;;;;;20.70;46.90;;;;;;5008967;28;20031;-76
2023/03/20 09:03:59;;;;;;;;;;;20.80;46.90;;;;;;5013113;28;20364;-75
2023/03/20 09:06:25;;;;;;;;;;;20.70;46.90;;;;;;5016060;28;20025;-75
2023/03/20 09:08:53;;;;;;;;;;;20.60;47.20;;;;;;5016857;28;19981;-74
2023/03/20 09:11:18;;;;;;;;;;;20.50;47.30;;;;;;5004223;28;20305;-74
2023/03/20 09:13:44;;;;;;;;;;;20.50;47.50;;;;;;5009001;28;19913;-75
2023/03/20 09:16:09;;;;;;;;;;;20.80;47.30;;;;;;5026558;28;20358;-75
2023/03/20 09:18:35;;;;;;;;;;;21.20;46.60;;;;;;5028242;28;19917;-74
2023/03/20 09:21:00;;;;;;;;;;;21.70;45.80;;;;;;5006781;28;20036;-74
2023/03/20 09:23:26;;;;;;;;;;;22.10;45.40;;;;;;4999729;28;19916;-75
2023/03/20 09:25:51;;;;;;;;;;;22.30;44.80;;;;;;5017364;28;19959;-75
2023/03/20 09:28:17;;;;;;;;;;;22.50;44.60;;;;;;5005511;28;20015;-74
2023/03/20 09:30:42;;;;;;;;;;;22.60;44.50;;;;;;5013658;28;19910;-75
2023/03/20 09:33:08;;;;;;;;;;;22.60;44.30;;;;;;5010528;28;20342;-75
2023/03/20 09:35:33;;;;;;;;;;;22.70;44.30;;;;;;5001871;28;19914;-75
2023/03/20 09:37:59;;;;;;;;;;;22.70;44.20;;;;;;5026385;28;19921;-75
2023/03/20 09:40:44;;;;;;;;;;;22.60;44.30;;;;;;5010338;28;19922;-75
2023/03/20 09:43:36;;;;;;;;;;;22.60;44.50;;;;;;5014165;28;19913;-75
2023/03/20 09:46:02;;;;;;;;;;;22.50;44.70;;;;;;5019410;28;20006;-75
2023/03/20 09:48:35;;;;;;;;;;;22.40;44.80;;;;;;5018496;28;20397;-74
2023/03/20 09:51:06;;;;;;;;;;;22.30;45.00;;;;;;4992391;28;19921;-74
2023/03/20 09:53:41;;;;;;;;;;;22.20;45.10;;;;;;5022323;28;20330;-75
2023/03/20 09:56:09;;;;;;;;;;;22.20;45.30;;;;;;5021191;28;19918;-75
2023/03/20 09:58:35;;;;;;;;;;;22.00;45.60;;;;;;5003890;28;20000;-75
2023/03/20 10:01:01;;;;;;;;;;;21.90;46.00;;;;;;5031202;28;20016;-75
2023/03/20 10:03:28;;;;;;;;;;;21.80;46.00;;;;;;5027354;28;20290;-74
2023/03/20 10:06:02;;;;;;;;;;;21.60;46.40;;;;;;5004585;28;20008;-75
2023/03/20 10:08:35;;;;;;;;;;;21.50;46.60;;;;;;5009229;28;19914;-75
2023/03/20 10:11:14;;;;;;;;;;;21.40;47.00;;;;;;5012886;28;19932;-74
2023/03/20 10:14:06;;;;;;;;;;;21.40;47.10;;;;;;5031764;28;19917;-75
2023/03/20 10:16:31;;;;;;;;;;;21.30;47.40;;;;;;5014409;28;19921;-74
2023/03/20 10:19:15;;;;;;;;;;;21.20;47.60;;;;;;5011463;28;19929;-73
2023/03/20 10:21:42;;;;;;;;;;;21.20;47.60;;;;;;5015258;28;19913;-74
2023/03/20 10:24:11;;;;;;;;;;;21.10;47.80;;;;;;5024678;28;20270;-74
2023/03/20 10:26:36;;;;;;;;;;;21.00;48.00;;;;;;5009598;28;19949;-75
2023/03/20 10:29:22;;;;;;;;;;;21.00;48.00;;;;;;5019142;28;19958;-74
2023/03/20 10:31:47;;;;;;;;;;;21.00;48.20;;;;;;5025685;27;20366;-75
2023/03/20 10:34:30;;;;;;;;;;;21.10;48.00;;;;;;5017305;28;19964;-75
2023/03/20 10:36:59;;;;;;;;;;;21.20;48.40;;;;;;5016785;28;20338;-74
2023/03/20 10:39:27;;;;;;;;;;;21.30;47.60;;;;;;5021270;28;20010;-75
2023/03/20 10:41:53;;;;;;;;;;;21.40;47.40;;;;;;5013747;28;20113;-76
2023/03/20 10:44:30;;;;;;;;;;;21.50;47.40;;;;;;5026349;28;19917;-76
2023/03/20 10:46:56;;;;;;;;;;;21.50;47.40;;;;;;5013192;28;20475;-75
2023/03/20 10:49:28;;;;;;;;;;;21.50;47.40;;;;;;5026478;28;19916;-75
2023/03/20 10:51:55;;;;;;;;;;;21.50;47.40;;;;;;5003537;28;19920;-74
2023/03/20 10:54:21;;;;;;;;;;;21.50;47.40;;;;;;5015664;28;19940;-75
2023/03/20 10:56:48;;;;;;;;;;;21.50;47.50;;;;;;5008994;28;19961;-75
2023/03/20 10:59:14;;;;;;;;;;;21.50;47.60;;;;;;5011724;27;19917;-74
2023/03/20 11:01:39;;;;;;;;;;;21.50;47.70;;;;;;5031049;28;19927;-75
2023/03/20 11:04:06;;;;;;;;;;;21.50;47.70;;;;;;5001597;28;20012;-76
2023/03/20 11:06:33;;;;;;;;;;;21.50;47.60;;;;;;5021567;28;20071;-75
2023/03/20 11:09:07;;;;;;;;;;;21.50;47.70;;;;;;5008884;28;19943;-76
2023/03/20 11:11:33;;;;;;;;;;;21.50;47.80;;;;;;5023714;28;19977;-76
2023/03/20 11:14:05;;;;;;;;;;;21.40;47.90;;;;;;5006933;28;20741;-76
2023/03/20 11:16:31;;;;;;;;;;;21.30;48.00;;;;;;5012529;28;19977;-75
2023/03/20 11:19:02;;;;;;;;;;;21.30;48.20;;;;;;5012817;28;20038;-75
2023/03/20 11:21:28;;;;;;;;;;;21.20;48.40;;;;;;5020745;28;20409;-75
2023/03/20 11:23:53;;;;;;;;;;;21.20;48.60;;;;;;5023426;28;19914;-75
2023/03/20 11:26:31;;;;;;;;;;;21.20;48.70;;;;;;5008712;28;19914;-75
2023/03/20 11:28:57;;;;;;;;;;;21.10;48.80;;;;;;5019469;28;19917;-76
2023/03/20 11:31:26;;;;;;;;;;;21.10;48.80;;;;;;5018127;28;19921;-75
2023/03/20 11:33:52;;;;;;;;;;;21.20;48.80;;;;;;5015796;28;19922;-75
2023/03/20 11:36:25;;;;;;;;;;;21.20;48.90;;;;;;5002106;28;20019;-75
2023/03/20 11:38:50;;;;;;;;;;;21.10;48.90;;;;;;5004743;28;19918;-75
2023/03/20 11:41:16;;;;;;;;;;;21.10;49.10;;;;;;5019210;28;19914;-76
2023/03/20 11:43:42;;;;;;;;;;;21.00;49.10;;;;;;5011070;28;19984;-75
2023/03/20 11:46:08;;;;;;;;;;;21.00;49.20;;;;;;5023344;28;19970;-75
2023/03/20 11:48:38;;;;;;;;;;;21.00;49.20;;;;;;5004336;28;19924;-75
2023/03/20 11:51:04;;;;;;;;;;;21.00;49.20;;;;;;5019500;28;19913;-75
2023/03/20 11:53:29;;;;;;;;;;;21.10;49.10;;;;;;5002554;28;19913;-75
2023/03/20 11:56:01;;;;;;;;;;;21.20;48.80;;;;;;5010895;28;20288;-75
2023/03/20 11:58:28;;;;;;;;;;;21.30;48.60;;;;;;5021938;28;20008;-76
2023/03/20 12:00:53;;;;;;;;;;;21.40;48.40;;;;;;5019168;28;19920;-75
2023/03/20 12:03:36;;;;;;;;;;;21.50;48.30;;;;;;5005629;28;20302;-75
2023/03/20 12:06:01;;;;;;;;;;;21.50;48.10;;;;;;5021306;28;19913;-75
2023/03/20 12:08:27;;;;;;;;;;;21.60;47.90;;;;;;5005856;28;20282;-75
2023/03/20 12:10:54;;;;;;;;;;;21.70;47.90;;;;;;5021762;28;19997;-76
2023/03/20 12:13:23;;;;;;;;;;;21.70;47.90;;;;;;5005816;28;19918;-76
2023/03/20 12:16:00;;;;;;;;;;;21.60;48.00;;;;;;5006588;28;20024;-76
2023/03/20 12:18:26;;;;;;;;;;;21.60;48.20;;;;;;5007576;28;19917;-75
2023/03/20 12:21:00;;;;;;;;;;;21.50;48.20;;;;;;5015790;28;20402;-75
2023/03/20 12:23:28;;;;;;;;;;;21.50;48.50;;;;;;5014859;28;19921;-76
2023/03/20 12:25:54;;;;;;;;;;;21.30;48.60;;;;;;5013479;28;19920;-75
2023/03/20 12:28:22;;;;;;;;;;;21.30;48.90;;;;;;5021815;28;19917;-75
2023/03/20 12:30:50;;;;;;;;;;;21.20;49.20;;;;;;5021296;28;20263;-76
2023/03/20 12:33:15;;;;;;;;;;;21.10;49.40;;;;;;5024058;27;19921;-76
2023/03/20 12:35:43;;;;;;;;;;;21.00;49.60;;;;;;5020490;28;20280;-76
2023/03/20 12:38:29;;;;;;;;;;;20.90;49.80;;;;;;5007463;28;19917;-76
2023/03/20 12:41:02;;;;;;;;;;;20.90;49.90;;;;;;5016855;28;20294;-75
2023/03/20 12:43:30;;;;;;;;;;;20.90;49.90;;;;;;5019793;28;19934;-76
2023/03/20 12:46:01;;;;;;;;;;;20.90;49.70;;;;;;5017239;28;20461;-75
2023/03/20 12:48:27;;;;;;;;;;;21.00;49.80;;;;;;5014419;28;19917;-75
2023/03/20 12:50:55;;;;;;;;;;;21.10;49.70;;;;;;5009963;28;19913;-76
2023/03/20 12:53:20;;;;;;;;;;;21.10;49.50;;;;;;5014318;28;19918;-75
2023/03/20 12:55:50;;;;;;;;;;;21.20;49.50;;;;;;5011406;28;19967;-75
2023/03/20 12:58:16;;;;;;;;;;;21.30;49.50;;;;;;4998298;28;19922;-76
2023/03/20 13:00:43;;;;;;;;;;;21.20;49.40;;;;;;5010675;28;20421;-76
2023/03/20 13:03:14;;;;;;;;;;;21.10;49.30;;;;;;5038796;28;19909;-75
2023/03/20 13:05:47;;;;;;;;;;;21.20;49.50;;;;;;4998732;28;20201;-75
2023/03/20 13:08:17;;;;;;;;;;;21.20;49.50;;;;;;4999147;28;19914;-75
2023/03/20 13:10:50;;;;;;;;;;;21.20;49.50;;;;;;5004688;28;20307;-76
2023/03/20 13:13:18;;;;;;;;;;;21.20;49.60;;;;;;5014841;28;19921;-76
2023/03/20 13:16:03;;;;;;;;;;;21.10;49.60;;;;;;5008545;28;19932;-76
2023/03/20 13:18:47;;;;;;;;;;;21.10;49.60;;;;;;5017947;28;19928;-75
2023/03/20 13:21:15;;;;;;;;;;;21.10;49.70;;;;;;5022301;28;19913;-75
2023/03/20 13:23:45;;;;;;;;;;;21.10;49.80;;;;;;5015027;28;20011;-76
2023/03/20 13:26:27;;;;;;;;;;;21.10;49.80;;;;;;5016452;28;19943;-76
2023/03/20 13:29:11;;;;;;;;;;;21.10;49.70;;;;;;5010079;28;20011;-76
2023/03/20 13:31:36;;;;;;;;;;;21.10;49.60;;;;;;5013213;28;19962;-76
2023/03/20 13:34:16;;;;;;;;;;;21.20;49.70;;;;;;5020480;28;19914;-77
2023/03/20 13:36:42;;;;;;;;;;;21.60;48.70;;;;;;5020891;28;19921;-79
2023/03/20 13:39:26;;;;;;;;;;;22.10;47.80;;;;;;5022910;28;20371;-77
2023/03/20 13:41:51;;;;;;;;;;;22.40;47.00;;;;;;5014501;28;20255;-75
2023/03/20 13:44:19;;;;;;;;;;;22.90;46.50;;;;;;5004190;28;19921;-75
2023/03/20 13:47:14;;;;;;;;;;;23.40;45.60;;;;;;5022346;28;19952;-76
2023/03/20 13:49:52;;;;;;;;;;;23.70;44.80;;;;;;5039098;28;19920;-76
2023/03/20 13:52:21;;;;;;;;;;;24.10;44.30;;;;;;5024437;28;19920;-76
2023/03/20 13:54:56;;;;;;;;;;;24.30;43.90;;;;;;5006821;28;19923;-76
2023/03/20 13:57:39;;;;;;;;;;;24.50;43.60;;;;;;5024700;28;19962;-75
2023/03/20 14:00:22;;;;;;;;;;;24.60;43.50;;;;;;5003033;28;19924;-76
2023/03/20 14:02:47;;;;;;;;;;;24.70;43.30;;;;;;5003924;28;19918;-76
2023/03/20 14:05:16;;;;;;;;;;;24.80;43.20;;;;;;5018251;28;19913;-75
2023/03/20 14:07:42;;;;;;;;;;;24.80;43.20;;;;;;5010056;28;19913;-76
2023/03/20 14:10:20;;;;;;;;;;;24.70;43.30;;;;;;5011684;28;20341;-76
2023/03/20 14:12:58;;;;;;;;;;;24.80;43.40;;;;;;5031001;28;19925;-76
2023/03/20 14:15:25;;;;;;;;;;;24.80;43.30;;;;;;4996285;28;19913;-75
2023/03/20 14:17:51;;;;;;;;;;;24.80;43.30;;;;;;5032058;28;19917;-76
2023/03/20 14:20:27;;;;;;;;;;;24.90;43.20;;;;;;5018925;28;20362;-75
2023/03/20 14:22:52;;;;;;;;;;;25.00;43.10;;;;;;5014333;28;19958;-76